createdAt,value
2018-05-04T00:00:09.582Z,0
2018-05-04T00:01:09.025Z,0
2018-05-04T00:02:09.270Z,0
2018-05-04T00:03:09.517Z,0
2018-05-04T00:04:08.967Z,0
2018-05-04T00:05:08.687Z,0
2018-05-04T00:06:09.753Z,0
2018-05-04T00:07:09.235Z,0
2018-05-04T00:08:09.172Z,0
2018-05-04T00:09:09.209Z,0
2018-05-04T00:10:09.401Z,0
2018-05-04T00:11:08.859Z,0
2018-05-04T00:12:09.417Z,0
2018-05-04T00:13:09.348Z,0
2018-05-04T00:14:09.337Z,0
2018-05-04T00:15:09.053Z,0
2018-05-04T00:16:09.295Z,0
2018-05-04T00:17:09.545Z,0
2018-05-04T00:18:08.998Z,0
2018-05-04T00:19:08.723Z,0
2018-05-04T00:20:08.443Z,0
2018-05-04T00:21:08.945Z,0
2018-05-04T00:22:09.202Z,0
2018-05-04T00:23:08.907Z,0
2018-05-04T00:24:09.426Z,0
2018-05-04T00:25:08.887Z,0
2018-05-04T00:26:08.334Z,0
2018-05-04T00:27:08.579Z,0
2018-05-04T00:28:08.566Z,0
2018-05-04T00:29:09.332Z,0
2018-05-04T00:30:09.059Z,0
2018-05-04T00:31:09.039Z,0
2018-05-04T00:32:08.761Z,0
2018-05-04T00:33:08.756Z,0
2018-05-04T00:34:09.028Z,0
2018-05-04T00:35:09.243Z,0
2018-05-04T00:36:08.969Z,0
2018-05-04T00:37:08.678Z,0
2018-05-04T00:38:08.923Z,0
2018-05-04T00:39:08.929Z,0
2018-05-04T00:40:08.628Z,0
2018-05-04T00:41:08.330Z,0
2018-05-04T00:42:08.858Z,0
2018-05-04T00:43:08.832Z,0
2018-05-04T00:44:08.286Z,0
2018-05-04T00:45:09.121Z,0
2018-05-04T00:46:08.520Z,0
2018-05-04T00:47:08.770Z,0
2018-05-04T00:48:08.487Z,0
2018-05-04T00:49:08.459Z,0
2018-05-04T00:50:08.988Z,0
2018-05-04T00:51:08.169Z,0
2018-05-04T00:52:08.408Z,0
2018-05-04T00:53:08.405Z,0
2018-05-04T00:54:08.124Z,0
2018-05-04T00:55:08.371Z,0
2018-05-04T00:56:08.082Z,0
2018-05-04T00:57:08.327Z,0
2018-05-04T00:58:08.315Z,0
2018-05-04T00:59:08.023Z,0
2018-05-04T01:00:08.282Z,0
2018-05-04T01:01:08.533Z,0
2018-05-04T01:02:07.984Z,0
2018-05-04T01:03:08.492Z,0
2018-05-04T01:04:08.477Z,0
2018-05-04T01:05:08.234Z,0
2018-05-04T01:06:08.239Z,0
2018-05-04T01:07:08.685Z,0
2018-05-04T01:08:08.449Z,0
2018-05-04T01:09:08.457Z,0
2018-05-04T01:10:08.103Z,0
2018-05-04T01:11:08.090Z,0
2018-05-04T01:12:08.071Z,0
2018-05-04T01:13:08.057Z,0
2018-05-04T01:14:08.313Z,0
2018-05-04T01:15:08.294Z,0
2018-05-04T01:16:07.738Z,0
2018-05-04T01:17:07.721Z,0
2018-05-04T01:18:07.434Z,0
2018-05-04T01:19:08.470Z,0
2018-05-04T01:20:08.198Z,0
2018-05-04T01:21:08.172Z,0
2018-05-04T01:22:08.154Z,0
2018-05-04T01:23:07.885Z,0
2018-05-04T01:24:07.909Z,0
2018-05-04T01:25:07.862Z,0
2018-05-04T01:26:07.827Z,0
2018-05-04T01:27:08.089Z,0
2018-05-04T01:28:08.044Z,0
2018-05-04T01:29:08.029Z,0
2018-05-04T01:30:07.746Z,0
2018-05-04T01:31:08.007Z,0
2018-05-04T01:32:07.980Z,0
2018-05-04T01:33:07.974Z,0
2018-05-04T01:34:08.214Z,0
2018-05-04T01:35:07.691Z,0
2018-05-04T01:36:08.185Z,0
2018-05-04T01:37:07.894Z,0
2018-05-04T01:38:07.608Z,0
2018-05-04T01:39:08.117Z,0
2018-05-04T01:40:08.101Z,0
2018-05-04T01:41:07.819Z,0
2018-05-04T01:42:07.543Z,0
2018-05-04T01:43:07.249Z,0
2018-05-04T01:44:07.767Z,0
2018-05-04T01:45:08.026Z,0
2018-05-04T01:46:07.196Z,0
2018-05-04T01:47:07.451Z,0
2018-05-04T01:48:07.214Z,0
2018-05-04T01:49:07.679Z,0
2018-05-04T01:50:06.860Z,0
2018-05-04T01:51:07.378Z,0
2018-05-04T01:52:07.361Z,0
2018-05-04T01:53:07.074Z,0
2018-05-04T01:54:07.061Z,0
2018-05-04T01:55:07.304Z,0
2018-05-04T01:56:07.881Z,0
2018-05-04T01:57:06.941Z,0
2018-05-04T01:58:06.984Z,0
2018-05-04T01:59:07.244Z,0
2018-05-04T02:00:07.221Z,0
2018-05-04T02:01:07.268Z,0
2018-05-04T02:02:07.443Z,0
2018-05-04T02:03:06.894Z,0
2018-05-04T02:04:07.421Z,0
2018-05-04T02:05:06.855Z,0
2018-05-04T02:06:07.112Z,0
2018-05-04T02:07:07.352Z,0
2018-05-04T02:08:07.347Z,0
2018-05-04T02:09:07.320Z,0
2018-05-04T02:10:07.563Z,0
2018-05-04T02:11:06.744Z,0
2018-05-04T02:12:07.000Z,0
2018-05-04T02:13:06.712Z,0
2018-05-04T02:14:06.959Z,0
2018-05-04T02:15:07.216Z,0
2018-05-04T02:16:06.656Z,0
2018-05-04T02:17:06.694Z,0
2018-05-04T02:18:06.620Z,0
2018-05-04T02:19:06.396Z,0
2018-05-04T02:20:06.850Z,0
2018-05-04T02:21:06.574Z,0
2018-05-04T02:22:06.823Z,0
2018-05-04T02:23:07.318Z,0
2018-05-04T02:24:07.037Z,0
2018-05-04T02:25:06.503Z,0
2018-05-04T02:26:06.743Z,0
2018-05-04T02:27:06.736Z,0
2018-05-04T02:28:06.986Z,0
2018-05-04T02:29:06.683Z,0
2018-05-04T02:30:06.687Z,0
2018-05-04T02:31:06.647Z,0
2018-05-04T02:32:07.170Z,0
2018-05-04T02:33:07.154Z,0
2018-05-04T02:34:06.604Z,0
2018-05-04T02:35:06.573Z,0
2018-05-04T02:36:06.828Z,0
2018-05-04T02:37:06.550Z,0
2018-05-04T02:38:06.787Z,0
2018-05-04T02:39:07.091Z,0
2018-05-04T02:40:06.495Z,0
2018-05-04T02:41:06.214Z,0
2018-05-04T02:42:06.179Z,0
2018-05-04T02:43:06.962Z,0
2018-05-04T02:44:06.410Z,0
2018-05-04T02:45:06.394Z,0
2018-05-04T02:46:06.376Z,0
2018-05-04T02:47:06.089Z,0
2018-05-04T02:48:06.875Z,0
2018-05-04T02:49:06.587Z,0
2018-05-04T02:50:06.569Z,0
2018-05-04T02:51:06.012Z,0
2018-05-04T02:52:06.014Z,0
2018-05-04T02:53:06.508Z,0
2018-05-04T02:54:06.230Z,0
2018-05-04T02:55:05.937Z,0
2018-05-04T02:56:06.204Z,0
2018-05-04T02:57:06.431Z,0
2018-05-04T02:58:06.428Z,0
2018-05-04T02:59:06.134Z,0
2018-05-04T03:00:06.118Z,0
2018-05-04T03:01:06.354Z,0
2018-05-04T03:02:06.349Z,0
2018-05-04T03:03:06.072Z,0
2018-05-04T03:04:06.033Z,0
2018-05-04T03:05:06.024Z,0
2018-05-04T03:06:05.736Z,0
2018-05-04T03:07:06.243Z,0
2018-05-04T03:08:06.233Z,0
2018-05-04T03:09:05.950Z,0
2018-05-04T03:10:05.925Z,0
2018-05-04T03:11:05.916Z,0
2018-05-04T03:12:06.153Z,0
2018-05-04T03:13:05.591Z,0
2018-05-04T03:14:06.376Z,0
2018-05-04T03:15:05.832Z,0
2018-05-04T03:16:05.799Z,0
2018-05-04T03:17:05.787Z,0
2018-05-04T03:18:06.033Z,0
2018-05-04T03:19:05.746Z,0
2018-05-04T03:20:06.002Z,0
2018-05-04T03:21:06.028Z,0
2018-05-04T03:22:06.230Z,0
2018-05-04T03:23:05.669Z,0
2018-05-04T03:24:05.914Z,0
2018-05-04T03:25:05.919Z,0
2018-05-04T03:26:05.885Z,0
2018-05-04T03:27:05.594Z,0
2018-05-04T03:28:05.584Z,0
2018-05-04T03:29:05.839Z,0
2018-05-04T03:30:05.537Z,0
2018-05-04T03:31:05.796Z,0
2018-05-04T03:32:06.058Z,0
2018-05-04T03:33:05.210Z,0
2018-05-04T03:34:05.744Z,0
2018-05-04T03:35:05.719Z,0
2018-05-04T03:36:05.738Z,0
2018-05-04T03:37:05.409Z,0
2018-05-04T03:38:05.384Z,0
2018-05-04T03:39:04.845Z,0
2018-05-04T03:40:05.079Z,0
2018-05-04T03:41:05.595Z,0
2018-05-04T03:42:05.047Z,0
2018-05-04T03:43:05.840Z,0
2018-05-04T03:44:05.281Z,0
2018-05-04T03:45:05.261Z,0
2018-05-04T03:46:05.245Z,0
2018-05-04T03:47:04.943Z,0
2018-05-04T03:48:05.208Z,0
2018-05-04T03:49:05.452Z,0
2018-05-04T03:50:05.162Z,0
2018-05-04T03:51:05.412Z,0
2018-05-04T03:52:05.925Z,0
2018-05-04T03:53:05.099Z,0
2018-05-04T03:54:05.081Z,0
2018-05-04T03:55:05.326Z,0
2018-05-04T03:56:05.038Z,0
2018-05-04T03:57:05.511Z,0
2018-05-04T03:58:05.276Z,0
2018-05-04T03:59:05.240Z,0
2018-05-04T04:00:04.971Z,5
2018-05-04T04:01:04.941Z,5
2018-05-04T04:02:04.943Z,5
2018-05-04T04:03:05.438Z,5
2018-05-04T04:04:04.896Z,5
2018-05-04T04:05:05.140Z,5
2018-05-04T04:06:04.593Z,5
2018-05-04T04:07:04.836Z,5
2018-05-04T04:08:05.345Z,5
2018-05-04T04:09:04.536Z,5
2018-05-04T04:10:04.505Z,5
2018-05-04T04:11:04.752Z,10
2018-05-04T04:12:05.004Z,10
2018-05-04T04:13:04.450Z,10
2018-05-04T04:14:04.432Z,10
2018-05-04T04:15:04.952Z,10
2018-05-04T04:16:04.928Z,10
2018-05-04T04:17:04.634Z,10
2018-05-04T04:18:05.144Z,10
2018-05-04T04:19:04.607Z,10
2018-05-04T04:20:05.113Z,15
2018-05-04T04:21:04.300Z,15
2018-05-04T04:22:04.025Z,15
2018-05-04T04:23:04.526Z,15
2018-05-04T04:24:04.508Z,15
2018-05-04T04:25:04.770Z,15
2018-05-04T04:26:04.468Z,15
2018-05-04T04:27:04.452Z,15
2018-05-04T04:28:04.698Z,20
2018-05-04T04:29:04.689Z,20
2018-05-04T04:30:04.121Z,20
2018-05-04T04:31:04.902Z,20
2018-05-04T04:32:04.624Z,20
2018-05-04T04:33:04.360Z,20
2018-05-04T04:34:04.047Z,20
2018-05-04T04:35:04.567Z,20
2018-05-04T04:36:04.014Z,25
2018-05-04T04:37:03.722Z,25
2018-05-04T04:38:03.971Z,25
2018-05-04T04:39:04.596Z,25
2018-05-04T04:40:03.936Z,25
2018-05-04T04:41:04.192Z,25
2018-05-04T04:42:04.690Z,25
2018-05-04T04:43:03.938Z,25
2018-05-04T04:44:03.588Z,30
2018-05-04T04:45:04.633Z,30
2018-05-04T04:46:04.624Z,30
2018-05-04T04:47:04.068Z,30
2018-05-04T04:48:04.067Z,30
2018-05-04T04:49:03.503Z,30
2018-05-04T04:50:04.009Z,30
2018-05-04T04:51:04.256Z,30
2018-05-04T04:52:04.252Z,30
2018-05-04T04:53:04.003Z,35
2018-05-04T04:54:04.201Z,35
2018-05-04T04:55:04.191Z,35
2018-05-04T04:56:03.900Z,35
2018-05-04T04:57:03.606Z,35
2018-05-04T04:58:04.139Z,35
2018-05-04T04:59:03.843Z,35
2018-05-04T05:00:03.815Z,35
2018-05-04T05:01:04.063Z,35
2018-05-04T05:02:03.965Z,40
2018-05-04T05:03:04.297Z,40
2018-05-04T05:04:03.750Z,40
2018-05-04T05:05:03.989Z,40
2018-05-04T05:06:03.435Z,40
2018-05-04T05:07:03.944Z,40
2018-05-04T05:08:03.944Z,40
2018-05-04T05:09:03.388Z,40
2018-05-04T05:10:03.368Z,40
2018-05-04T05:11:03.346Z,40
2018-05-04T05:12:03.860Z,45
2018-05-04T05:13:03.317Z,45
2018-05-04T05:14:03.555Z,45
2018-05-04T05:15:03.795Z,45
2018-05-04T05:16:03.784Z,45
2018-05-04T05:17:03.763Z,45
2018-05-04T05:18:03.503Z,45
2018-05-04T05:19:03.728Z,45
2018-05-04T05:20:03.712Z,45
2018-05-04T05:21:03.431Z,45
2018-05-04T05:22:03.242Z,50
2018-05-04T05:23:03.660Z,50
2018-05-04T05:24:03.101Z,50
2018-05-04T05:25:03.358Z,50
2018-05-04T05:26:03.613Z,50
2018-05-04T05:27:03.045Z,50
2018-05-04T05:28:03.289Z,50
2018-05-04T05:29:03.008Z,50
2018-05-04T05:30:03.796Z,50
2018-05-04T05:31:02.968Z,50
2018-05-04T05:32:02.955Z,50
2018-05-04T05:33:02.934Z,55
2018-05-04T05:34:03.184Z,55
2018-05-04T05:35:02.904Z,55
2018-05-04T05:36:03.405Z,55
2018-05-04T05:37:03.128Z,55
2018-05-04T05:38:03.107Z,55
2018-05-04T05:39:03.351Z,55
2018-05-04T05:40:03.068Z,55
2018-05-04T05:41:02.786Z,55
2018-05-04T05:42:03.303Z,55
2018-05-04T05:43:03.022Z,55
2018-05-04T05:44:03.273Z,60
2018-05-04T05:45:02.972Z,60
2018-05-04T05:46:03.238Z,60
2018-05-04T05:47:02.940Z,60
2018-05-04T05:48:03.181Z,60
2018-05-04T05:49:02.901Z,60
2018-05-04T05:50:02.909Z,60
2018-05-04T05:51:02.884Z,60
2018-05-04T05:52:03.726Z,60
2018-05-04T05:53:03.114Z,60
2018-05-04T05:54:03.361Z,60
2018-05-04T05:55:02.804Z,60
2018-05-04T05:56:02.529Z,65
2018-05-04T05:57:02.758Z,65
2018-05-04T05:58:03.002Z,65
2018-05-04T05:59:02.788Z,65
2018-05-04T06:00:02.715Z,65
2018-05-04T06:01:02.242Z,65
2018-05-04T06:02:02.946Z,65
2018-05-04T06:03:02.937Z,65
2018-05-04T06:04:02.679Z,65
2018-05-04T06:05:02.616Z,65
2018-05-04T06:06:02.613Z,65
2018-05-04T06:07:02.589Z,65
2018-05-04T06:08:02.572Z,65
2018-05-04T06:09:02.289Z,65
2018-05-04T06:10:02.539Z,65
2018-05-04T06:11:02.776Z,65
2018-05-04T06:12:02.503Z,65
2018-05-04T06:13:02.214Z,65
2018-05-04T06:14:02.741Z,65
2018-05-04T06:15:02.562Z,65
2018-05-04T06:16:02.233Z,65
2018-05-04T06:17:02.951Z,65
2018-05-04T06:18:02.126Z,65
2018-05-04T06:19:02.374Z,65
2018-05-04T06:20:02.621Z,70
2018-05-04T06:21:02.346Z,70
2018-05-04T06:22:02.863Z,70
2018-05-04T06:23:02.045Z,70
2018-05-04T06:24:02.026Z,70
2018-05-04T06:25:02.358Z,70
2018-05-04T06:26:02.806Z,70
2018-05-04T06:27:02.234Z,70
2018-05-04T06:28:01.957Z,70
2018-05-04T06:29:02.475Z,70
2018-05-04T06:30:02.768Z,70
2018-05-04T06:31:02.436Z,70
2018-05-04T06:32:02.681Z,75
2018-05-04T06:33:02.131Z,75
2018-05-04T06:34:02.600Z,75
2018-05-04T06:35:02.118Z,75
2018-05-04T06:36:02.609Z,75
2018-05-04T06:37:02.596Z,75
2018-05-04T06:38:02.055Z,75
2018-05-04T06:39:02.296Z,75
2018-05-04T06:40:01.749Z,75
2018-05-04T06:41:01.995Z,75
2018-05-04T06:42:02.268Z,75
2018-05-04T06:43:01.968Z,75
2018-05-04T06:44:01.726Z,75
2018-05-04T06:45:01.667Z,80
2018-05-04T06:46:01.650Z,80
2018-05-04T06:47:01.899Z,80
2018-05-04T06:48:01.881Z,80
2018-05-04T06:49:02.133Z,80
2018-05-04T06:50:02.112Z,80
2018-05-04T06:51:02.107Z,80
2018-05-04T06:52:01.811Z,80
2018-05-04T06:53:01.537Z,80
2018-05-04T06:54:01.518Z,80
2018-05-04T06:55:02.044Z,80
2018-05-04T06:56:02.285Z,85
2018-05-04T06:57:01.999Z,85
2018-05-04T06:58:01.717Z,85
2018-05-04T06:59:01.436Z,85
2018-05-04T07:00:01.727Z,85
2018-05-04T07:01:01.680Z,85
2018-05-04T07:02:01.651Z,85
2018-05-04T07:03:01.367Z,85
2018-05-04T07:04:02.174Z,85
2018-05-04T07:05:01.871Z,85
2018-05-04T07:06:01.593Z,85
2018-05-04T07:07:01.851Z,90
2018-05-04T07:08:01.815Z,90
2018-05-04T07:09:02.001Z,90
2018-05-04T07:10:01.527Z,90
2018-05-04T07:11:01.504Z,90
2018-05-04T07:12:01.229Z,90
2018-05-04T07:13:01.751Z,90
2018-05-04T07:14:01.728Z,90
2018-05-04T07:15:01.288Z,95
2018-05-04T07:16:01.161Z,95
2018-05-04T07:17:01.411Z,95
2018-05-04T07:18:01.665Z,95
2018-05-04T07:19:01.653Z,95
2018-05-04T07:20:01.369Z,95
2018-05-04T07:21:01.611Z,95
2018-05-04T07:22:01.353Z,95
2018-05-04T07:23:01.851Z,95
2018-05-04T07:24:01.842Z,100
2018-05-04T07:25:01.550Z,100
2018-05-04T07:26:01.276Z,100
2018-05-04T07:27:01.002Z,100
2018-05-04T07:28:01.507Z,100
2018-05-04T07:29:01.227Z,105
2018-05-04T07:30:00.943Z,105
2018-05-04T07:31:01.723Z,105
2018-05-04T07:32:01.184Z,110
2018-05-04T07:33:01.689Z,110
2018-05-04T07:34:01.149Z,115
2018-05-04T07:35:01.401Z,115
2018-05-04T07:36:01.238Z,115
2018-05-04T07:37:00.838Z,115
2018-05-04T07:38:01.097Z,115
2018-05-04T07:39:01.066Z,115
2018-05-04T07:40:00.799Z,115
2018-05-04T07:41:01.314Z,115
2018-05-04T07:42:01.030Z,115
2018-05-04T07:43:01.609Z,115
2018-05-04T07:44:01.738Z,115
2018-05-04T07:45:01.000Z,120
2018-05-04T07:46:01.237Z,120
2018-05-04T07:47:00.695Z,120
2018-05-04T07:48:01.214Z,120
2018-05-04T07:49:01.192Z,120
2018-05-04T07:50:01.175Z,120
2018-05-04T07:51:00.632Z,120
2018-05-04T07:52:00.876Z,120
2018-05-04T07:53:00.876Z,120
2018-05-04T07:54:01.398Z,120
2018-05-04T07:55:01.107Z,120
2018-05-04T07:56:00.832Z,120
2018-05-04T07:57:01.074Z,120
2018-05-04T07:58:01.277Z,120
2018-05-04T07:59:01.042Z,125
2018-05-04T08:00:01.039Z,125
2018-05-04T08:01:00.751Z,125
2018-05-04T08:02:00.477Z,125
2018-05-04T08:03:00.941Z,125
2018-05-04T08:04:01.250Z,125
2018-05-04T08:05:00.706Z,130
2018-05-04T08:06:01.213Z,130
2018-05-04T08:07:00.935Z,130
2018-05-04T08:08:00.920Z,180
2018-05-04T08:09:00.379Z,815
2018-05-04T08:10:00.623Z,1285
2018-05-04T08:11:00.621Z,1285
2018-05-04T08:12:00.874Z,1295
2018-05-04T08:13:00.859Z,1300
2018-05-04T08:14:00.588Z,1355
2018-05-04T08:15:00.837Z,1455
2018-05-04T08:16:00.619Z,1470
2018-05-04T08:17:00.811Z,1385
2018-05-04T08:18:00.279Z,1350
2018-05-04T08:19:00.792Z,1385
2018-05-04T08:20:00.620Z,1430
2018-05-04T08:21:00.252Z,1470
2018-05-04T08:22:00.244Z,1510
2018-05-04T08:23:00.238Z,1560
2018-05-04T08:24:01.026Z,1455
2018-05-04T08:25:00.485Z,1410
2018-05-04T08:26:00.757Z,1085
2018-05-04T08:27:01.018Z,900
2018-05-04T08:28:00.743Z,1125
2018-05-04T08:29:00.463Z,1185
2018-05-04T08:30:00.734Z,700
2018-05-04T08:31:00.202Z,540
2018-05-04T08:32:00.472Z,270
2018-05-04T08:33:00.460Z,295
2018-05-04T08:34:01.182Z,285
2018-05-04T08:35:00.448Z,265
2018-05-04T08:36:00.433Z,290
2018-05-04T08:37:00.697Z,215
2018-05-04T08:38:00.689Z,265
2018-05-04T08:39:00.413Z,405
2018-05-04T08:40:00.753Z,420
2018-05-04T08:41:00.233Z,185
2018-05-04T08:42:00.402Z,240
2018-05-04T08:43:00.369Z,300
2018-05-04T08:44:00.656Z,175
2018-05-04T08:45:00.377Z,195
2018-05-04T08:46:00.376Z,175
2018-05-04T08:47:01.019Z,405
2018-05-04T08:48:00.622Z,185
2018-05-04T08:49:00.420Z,140
2018-05-04T08:50:00.882Z,130
2018-05-04T08:51:00.886Z,215
2018-05-04T08:52:00.592Z,215
2018-05-04T08:53:00.319Z,265
2018-05-04T08:54:00.569Z,260
2018-05-04T08:55:00.828Z,165
2018-05-04T08:56:00.290Z,165
2018-05-04T08:57:00.640Z,150
2018-05-04T08:58:00.286Z,140
2018-05-04T08:59:00.532Z,130
2018-05-04T08:59:59.993Z,135
2018-05-04T09:01:00.256Z,135
2018-05-04T09:02:00.631Z,130
2018-05-04T09:03:00.496Z,130
2018-05-04T09:04:00.217Z,130
2018-05-04T09:05:00.209Z,180
2018-05-04T09:05:59.940Z,195
2018-05-04T09:07:00.191Z,195
2018-05-04T09:08:00.446Z,225
2018-05-04T09:08:59.905Z,360
2018-05-04T09:09:59.896Z,270
2018-05-04T09:11:00.429Z,145
2018-05-04T09:12:00.156Z,145
2018-05-04T09:13:00.400Z,135
2018-05-04T09:14:00.396Z,150
2018-05-04T09:14:59.855Z,170
2018-05-04T09:16:00.381Z,245
2018-05-04T09:17:00.095Z,200
2018-05-04T09:17:59.822Z,135
2018-05-04T09:19:00.083Z,135
2018-05-04T09:20:00.515Z,145
2018-05-04T09:21:00.056Z,145
2018-05-04T09:22:00.330Z,135
2018-05-04T09:23:00.025Z,140
2018-05-04T09:23:59.753Z,140
2018-05-04T09:25:00.278Z,140
2018-05-04T09:26:00.269Z,140
2018-05-04T09:26:59.726Z,145
2018-05-04T09:28:00.511Z,140
2018-05-04T09:29:00.241Z,140
2018-05-04T09:30:00.489Z,160
2018-05-04T09:30:59.788Z,165
2018-05-04T09:31:59.409Z,170
2018-05-04T09:33:00.194Z,140
2018-05-04T09:33:59.716Z,135
2018-05-04T09:35:00.183Z,135
2018-05-04T09:36:00.157Z,135
2018-05-04T09:36:59.889Z,135
2018-05-04T09:38:00.142Z,140
2018-05-04T09:39:00.149Z,140
2018-05-04T09:39:59.852Z,145
2018-05-04T09:40:59.838Z,145
2018-05-04T09:42:00.147Z,150
2018-05-04T09:43:00.086Z,150
2018-05-04T09:44:00.022Z,150
2018-05-04T09:45:00.062Z,150
2018-05-04T09:46:00.325Z,145
2018-05-04T09:46:59.781Z,150
2018-05-04T09:48:00.038Z,145
2018-05-04T09:48:59.561Z,150
2018-05-04T09:49:59.750Z,145
2018-05-04T09:50:59.748Z,145
2018-05-04T09:51:59.722Z,175
2018-05-04T09:52:59.713Z,155
2018-05-04T09:53:59.711Z,185
2018-05-04T09:54:59.964Z,150
2018-05-04T09:56:00.324Z,150
2018-05-04T09:56:59.407Z,150
2018-05-04T09:57:59.871Z,150
2018-05-04T09:58:59.650Z,150
2018-05-04T09:59:59.637Z,150
2018-05-04T10:00:59.425Z,150
2018-05-04T10:01:59.633Z,150
2018-05-04T10:02:59.875Z,155
2018-05-04T10:03:59.860Z,155
2018-05-04T10:04:59.057Z,160
2018-05-04T10:06:00.113Z,165
2018-05-04T10:06:59.564Z,155
2018-05-04T10:07:59.567Z,155
2018-05-04T10:08:59.810Z,160
2018-05-04T10:10:00.064Z,185
2018-05-04T10:10:59.790Z,170
2018-05-04T10:11:59.779Z,300
2018-05-04T10:12:59.236Z,230
2018-05-04T10:14:00.035Z,175
2018-05-04T10:14:59.483Z,165
2018-05-04T10:15:59.849Z,185
2018-05-04T10:16:59.532Z,170
2018-05-04T10:17:59.505Z,190
2018-05-04T10:18:59.464Z,280
2018-05-04T10:19:58.913Z,220
2018-05-04T10:20:59.170Z,660
2018-05-04T10:21:59.917Z,735
2018-05-04T10:22:59.139Z,1165
2018-05-04T10:23:59.122Z,955
2018-05-04T10:24:59.125Z,950
2018-05-04T10:25:59.110Z,970
2018-05-04T10:26:59.104Z,1165
2018-05-04T10:27:59.618Z,1320
2018-05-04T10:28:59.085Z,1210
2018-05-04T10:29:59.615Z,1570
2018-05-04T10:31:00.100Z,1800
2018-05-04T10:31:59.402Z,1930
2018-05-04T10:32:59.058Z,1915
2018-05-04T10:33:59.848Z,1895
2018-05-04T10:34:59.313Z,1905
2018-05-04T10:35:59.347Z,1855
2018-05-04T10:36:59.047Z,1805
2018-05-04T10:37:59.302Z,1840
2018-05-04T10:38:59.735Z,1915
2018-05-04T10:39:59.028Z,2040
2018-05-04T10:40:59.821Z,2045
2018-05-04T10:41:58.764Z,2075
2018-05-04T10:42:59.030Z,2065
2018-05-04T10:43:59.554Z,2045
2018-05-04T10:44:59.300Z,2010
2018-05-04T10:45:58.755Z,2000
2018-05-04T10:46:59.031Z,2030
2018-05-04T10:47:59.599Z,2030
2018-05-04T10:48:59.290Z,2010
2018-05-04T10:49:59.299Z,1990
2018-05-04T10:50:59.565Z,1960
2018-05-04T10:51:59.040Z,2000
2018-05-04T10:52:59.294Z,2000
2018-05-04T10:53:59.563Z,1930
2018-05-04T10:54:58.770Z,1780
2018-05-04T10:55:59.025Z,1715
2018-05-04T10:56:59.582Z,1735
2018-05-04T10:57:59.317Z,1725
2018-05-04T10:58:59.585Z,1790
2018-05-04T10:59:59.585Z,1950
2018-05-04T11:00:59.592Z,2045
2018-05-04T11:01:59.330Z,2015
2018-05-04T11:02:59.858Z,1850
2018-05-04T11:03:59.860Z,1835
2018-05-04T11:04:59.765Z,1815
2018-05-04T11:05:59.687Z,1895
2018-05-04T11:06:59.612Z,1945
2018-05-04T11:07:59.362Z,2020
2018-05-04T11:08:59.608Z,2110
2018-05-04T11:09:59.084Z,2100
2018-05-04T11:10:59.365Z,2085
2018-05-04T11:11:59.556Z,2100
2018-05-04T11:12:59.899Z,2125
2018-05-04T11:13:58.848Z,2170
2018-05-04T11:14:59.372Z,2145
2018-05-04T11:15:59.645Z,2075
2018-05-04T11:16:59.387Z,2000
2018-05-04T11:17:59.386Z,2025
2018-05-04T11:18:59.179Z,2040
2018-05-04T11:19:59.399Z,2065
2018-05-04T11:20:59.413Z,2070
2018-05-04T11:21:59.936Z,2020
2018-05-04T11:22:59.414Z,1975
2018-05-04T11:23:59.765Z,1945
2018-05-04T11:25:00.028Z,1960
2018-05-04T11:25:59.790Z,1955
2018-05-04T11:26:59.714Z,2005
2018-05-04T11:27:59.190Z,2060
2018-05-04T11:28:58.917Z,2030
2018-05-04T11:29:58.919Z,2040
2018-05-04T11:30:59.194Z,1980
2018-05-04T11:31:59.462Z,2045
2018-05-04T11:32:59.929Z,2080
2018-05-04T11:33:59.534Z,2030
2018-05-04T11:34:59.776Z,1955
2018-05-04T11:35:59.515Z,2010
2018-05-04T11:36:59.765Z,2020
2018-05-04T11:37:59.504Z,2030
2018-05-04T11:38:59.055Z,2020
2018-05-04T11:39:59.777Z,1985
2018-05-04T11:40:59.250Z,1975
2018-05-04T11:41:59.255Z,2000
2018-05-04T11:42:59.522Z,2055
2018-05-04T11:43:59.538Z,2105
2018-05-04T11:44:59.535Z,2145
2018-05-04T11:45:59.815Z,2190
2018-05-04T11:46:59.832Z,2205
2018-05-04T11:47:59.562Z,2170
2018-05-04T11:48:59.354Z,2100
2018-05-04T11:49:59.318Z,2010
2018-05-04T11:50:59.582Z,1955
2018-05-04T11:51:59.860Z,1980
2018-05-04T11:52:59.857Z,2045
2018-05-04T11:53:59.071Z,2055
2018-05-04T11:54:59.980Z,2050
2018-05-04T11:55:59.348Z,2025
2018-05-04T11:56:59.917Z,2035
2018-05-04T11:58:00.114Z,2055
2018-05-04T11:59:00.230Z,2060
2018-05-04T11:59:59.684Z,2035
2018-05-04T12:01:00.170Z,1950
2018-05-04T12:01:59.926Z,1865
2018-05-04T12:02:59.437Z,1770
2018-05-04T12:03:59.928Z,1805
2018-05-04T12:05:00.551Z,1900
2018-05-04T12:05:59.957Z,1965
2018-05-04T12:06:59.973Z,1990
2018-05-04T12:07:59.706Z,2000
2018-05-04T12:08:59.702Z,2005
2018-05-04T12:10:00.011Z,2035
2018-05-04T12:10:59.494Z,2070
2018-05-04T12:11:59.716Z,2065
2018-05-04T12:12:59.994Z,2020
2018-05-04T12:13:59.999Z,2010
2018-05-04T12:14:59.458Z,2025
2018-05-04T12:16:00.001Z,2005
2018-05-04T12:17:00.027Z,2055
2018-05-04T12:17:59.484Z,2080
2018-05-04T12:18:59.759Z,2125
2018-05-04T12:19:59.499Z,2130
2018-05-04T12:20:59.773Z,2035
2018-05-04T12:21:59.783Z,1930
2018-05-04T12:23:00.307Z,1885
2018-05-04T12:24:00.107Z,1925
2018-05-04T12:24:59.802Z,1965
2018-05-04T12:25:59.802Z,1980
2018-05-04T12:27:00.082Z,2005
2018-05-04T12:27:59.810Z,1960
2018-05-04T12:28:59.823Z,1890
2018-05-04T12:30:00.090Z,1865
2018-05-04T12:31:00.366Z,1900
2018-05-04T12:31:59.903Z,1945
2018-05-04T12:33:00.403Z,1990
2018-05-04T12:34:00.134Z,1950
2018-05-04T12:35:00.175Z,1905
2018-05-04T12:35:59.599Z,1905
2018-05-04T12:36:59.981Z,1865
2018-05-04T12:37:59.609Z,1830
2018-05-04T12:39:00.157Z,1855
2018-05-04T12:40:00.227Z,1875
2018-05-04T12:40:59.634Z,1900
2018-05-04T12:41:59.640Z,1910
2018-05-04T12:42:59.916Z,1890
2018-05-04T12:43:59.914Z,1890
2018-05-04T12:45:00.193Z,1865
2018-05-04T12:45:59.664Z,1900
2018-05-04T12:47:00.393Z,1970
2018-05-04T12:48:00.203Z,1985
2018-05-04T12:48:59.730Z,1960
2018-05-04T12:50:00.212Z,1915
2018-05-04T12:50:59.695Z,1895
2018-05-04T12:52:00.240Z,1890
2018-05-04T12:52:59.972Z,1885
2018-05-04T12:53:59.723Z,1910
2018-05-04T12:54:59.999Z,1960
2018-05-04T12:56:00.470Z,1960
2018-05-04T12:57:00.032Z,1915
2018-05-04T12:58:00.294Z,1850
2018-05-04T12:59:00.035Z,1800
2018-05-04T13:00:00.281Z,1830
2018-05-04T13:01:00.035Z,1845
2018-05-04T13:01:59.767Z,1845
2018-05-04T13:03:00.569Z,1830
2018-05-04T13:04:00.321Z,1800
2018-05-04T13:05:00.785Z,1780
2018-05-04T13:05:59.785Z,1755
2018-05-04T13:07:00.335Z,1770
2018-05-04T13:08:00.600Z,1790
2018-05-04T13:09:00.610Z,1815
2018-05-04T13:09:59.827Z,1820
2018-05-04T13:10:59.819Z,1825
2018-05-04T13:12:00.098Z,1830
2018-05-04T13:13:00.632Z,1840
2018-05-04T13:14:00.108Z,1835
2018-05-04T13:15:00.160Z,1160
2018-05-04T13:16:00.405Z,1835
2018-05-04T13:17:00.131Z,1855
2018-05-04T13:17:59.875Z,1860
2018-05-04T13:19:00.677Z,1835
2018-05-04T13:20:00.417Z,1785
2018-05-04T13:21:00.682Z,1785
2018-05-04T13:22:00.159Z,1790
2018-05-04T13:23:00.169Z,1825
2018-05-04T13:24:00.165Z,1825
2018-05-04T13:25:00.708Z,1810
2018-05-04T13:25:59.922Z,1745
2018-05-04T13:27:00.185Z,1735
2018-05-04T13:28:00.187Z,1685
2018-05-04T13:29:00.476Z,1735
2018-05-04T13:30:00.475Z,1755
2018-05-04T13:30:59.948Z,1755
2018-05-04T13:32:00.216Z,1780
2018-05-04T13:32:59.956Z,1760
2018-05-04T13:34:00.223Z,1725
2018-05-04T13:35:00.509Z,1655
2018-05-04T13:36:00.246Z,1680
2018-05-04T13:37:00.239Z,1705
2018-05-04T13:38:00.524Z,1725
2018-05-04T13:39:00.527Z,1715
2018-05-04T13:40:00.520Z,1505
2018-05-04T13:40:59.778Z,1635
2018-05-04T13:41:59.737Z,1645
2018-05-04T13:43:00.282Z,1620
2018-05-04T13:44:00.017Z,1530
2018-05-04T13:45:00.587Z,1495
2018-05-04T13:46:00.864Z,1520
2018-05-04T13:47:00.575Z,1550
2018-05-04T13:48:00.313Z,1590
2018-05-04T13:49:00.239Z,1625
2018-05-04T13:50:00.309Z,1665
2018-05-04T13:51:00.659Z,1695
2018-05-04T13:52:00.583Z,1655
2018-05-04T13:53:00.324Z,1565
2018-05-04T13:54:00.602Z,1505
2018-05-04T13:55:00.611Z,1500
2018-05-04T13:56:00.625Z,1520
2018-05-04T13:57:00.090Z,1545
2018-05-04T13:58:00.848Z,1545
2018-05-04T13:59:00.636Z,1565
2018-05-04T14:00:00.675Z,1540
2018-05-04T14:01:00.373Z,1510